sensor_id;sensor_type;location;lat;lon;timestamp;pressure;altitude;pressure_sealevel;temperature;humidity
32033;BME280;31720;52.638;9.216;2023-02-15T00:02:21;102709.78;;;2.44;100.00
32033;BME280;31720;52.638;9.216;2023-02-15T00:05:25;102710.63;;;2.43;100.00
32033;BME280;31720;52.638;9.216;2023-02-15T00:08:27;102705.34;;;2.35;100.00
32033;BME280;31720;52.638;9.216;2023-02-15T00:11:28;102699.28;;;2.33;100.00
32033;BME280;31720;52.638;9.216;2023-02-15T00:14:43;102697.50;;;2.29;100.00
32033;BME280;31720;52.638;9.216;2023-02-15T00:17:44;102700.03;;;2.24;100.00
32033;BME280;31720;52.638;9.216;2023-02-15T00:20:47;102693.06;;;2.22;100.00
32033;BME280;31720;52.638;9.216;2023-02-15T00:23:48;102688.75;;;2.19;100.00
32033;BME280;31720;52.638;9.216;2023-02-15T00:26:50;102678.31;;;2.18;100.00
32033;BME280;31720;52.638;9.216;2023-02-15T00:29:51;102683.50;;;2.18;100.00
32033;BME280;31720;52.638;9.216;2023-02-15T00:32:52;102685.19;;;2.13;100.00
32033;BME280;31720;52.638;9.216;2023-02-15T00:35:56;102687.72;;;2.08;100.00
32033;BME280;31720;52.638;9.216;2023-02-15T00:38:58;102694.63;;;2.08;100.00
32033;BME280;31720;52.638;9.216;2023-02-15T00:42:00;102686.78;;;2.01;100.00
32033;BME280;31720;52.638;9.216;2023-02-15T00:45:01;102689.38;;;2.03;100.00
32033;BME280;31720;52.638;9.216;2023-02-15T00:48:03;102685.81;;;1.95;100.00
32033;BME280;31720;52.638;9.216;2023-02-15T00:51:06;102679.75;;;1.93;100.00
32033;BME280;31720;52.638;9.216;2023-02-15T00:54:07;102680.59;;;1.93;100.00
32033;BME280;31720;52.638;9.216;2023-02-15T00:57:08;102683.13;;;1.87;100.00
32033;BME280;31720;52.638;9.216;2023-02-15T01:00:11;102675.25;;;1.81;100.00
32033;BME280;31720;52.638;9.216;2023-02-15T01:03:13;102677.03;;;1.84;100.00
32033;BME280;31720;52.638;9.216;2023-02-15T01:06:17;102672.72;;;1.86;100.00
32033;BME280;31720;52.638;9.216;2023-02-15T01:09:18;102669.25;;;1.84;100.00
32033;BME280;31720;52.638;9.216;2023-02-15T01:12:20;102676.16;;;1.85;100.00
32033;BME280;31720;52.638;9.216;2023-02-15T01:15:21;102668.38;;;1.85;100.00
32033;BME280;31720;52.638;9.216;2023-02-15T01:18:23;102671.66;;;1.71;100.00
32033;BME280;31720;52.638;9.216;2023-02-15T01:21:26;102662.97;;;1.68;100.00
32033;BME280;31720;52.638;9.216;2023-02-15T01:24:27;102662.88;;;1.62;100.00
32033;BME280;31720;52.638;9.216;2023-02-15T01:27:29;102658.50;;;1.56;100.00
32033;BME280;31720;52.638;9.216;2023-02-15T01:30:31;102655.63;;;1.39;100.00
32033;BME280;31720;52.638;9.216;2023-02-15T01:33:34;102652.19;;;1.40;100.00
32033;BME280;31720;52.638;9.216;2023-02-15T01:36:37;102650.53;;;1.44;100.00
32033;BME280;31720;52.638;9.216;2023-02-15T01:39:38;102643.56;;;1.40;100.00
32033;BME280;31720;52.638;9.216;2023-02-15T01:42:40;102640.94;;;1.37;100.00
32033;BME280;31720;52.638;9.216;2023-02-15T01:45:42;102632.34;;;1.41;100.00
32033;BME280;31720;52.638;9.216;2023-02-15T01:48:48;102630.47;;;1.29;100.00
32033;BME280;31720;52.638;9.216;2023-02-15T01:51:52;102631.38;;;1.33;100.00
32033;BME280;31720;52.638;9.216;2023-02-15T01:54:53;102620.81;;;1.19;100.00
32033;BME280;31720;52.638;9.216;2023-02-15T01:57:55;102624.34;;;1.24;100.00
32033;BME280;31720;52.638;9.216;2023-02-15T02:00:59;102625.13;;;1.20;100.00
32033;BME280;31720;52.638;9.216;2023-02-15T02:04:05;102613.94;;;1.22;100.00
32033;BME280;31720;52.638;9.216;2023-02-15T02:07:12;102617.44;;;1.24;100.00
32033;BME280;31720;52.638;9.216;2023-02-15T02:10:17;102614.88;;;1.26;100.00
32033;BME280;31720;52.638;9.216;2023-02-15T02:13:19;102608.81;;;1.25;100.00
32033;BME280;31720;52.638;9.216;2023-02-15T02:16:23;102608.81;;;1.27;100.00
32033;BME280;31720;52.638;9.216;2023-02-15T02:19:51;102615.59;;;1.17;100.00
32033;BME280;31720;52.638;9.216;2023-02-15T02:23:14;102609.72;;;0.73;100.00
32033;BME280;31720;52.638;9.216;2023-02-15T02:26:42;102615.75;;;0.75;100.00
32033;BME280;31720;52.638;9.216;2023-02-15T02:30:15;102608.16;;;0.86;100.00
32033;BME280;31720;52.638;9.216;2023-02-15T02:33:34;102611.75;;;0.94;100.00
32033;BME280;31720;52.638;9.216;2023-02-15T02:36:46;102605.66;;;0.90;100.00
32033;BME280;31720;52.638;9.216;2023-02-15T02:39:55;102606.72;;;1.00;100.00
32033;BME280;31720;52.638;9.216;2023-02-15T02:43:10;102599.75;;;0.96;100.00
32033;BME280;31720;52.638;9.216;2023-02-15T02:46:15;102599.03;;;1.05;100.00
32033;BME280;31720;52.638;9.216;2023-02-15T02:49:30;102596.50;;;1.09;100.00
32033;BME280;31720;52.638;9.216;2023-02-15T02:52:36;102597.38;;;1.11;100.00
32033;BME280;31720;52.638;9.216;2023-02-15T02:55:41;102590.47;;;1.10;100.00
32033;BME280;31720;52.638;9.216;2023-02-15T02:58:47;102586.94;;;1.05;100.00
32033;BME280;31720;52.638;9.216;2023-02-15T03:01:53;102578.22;;;1.00;100.00
32033;BME280;31720;52.638;9.216;2023-02-15T03:05:00;102585.16;;;1.01;100.00
32033;BME280;31720;52.638;9.216;2023-02-15T03:08:04;102581.69;;;1.00;100.00
32033;BME280;31720;52.638;9.216;2023-02-15T03:11:11;102584.22;;;0.97;100.00
32033;BME280;31720;52.638;9.216;2023-02-15T03:14:14;102576.31;;;0.90;100.00
32033;BME280;31720;52.638;9.216;2023-02-15T03:17:18;102578.81;;;0.84;100.00
32033;BME280;31720;52.638;9.216;2023-02-15T03:20:25;102565.75;;;0.76;100.00
32033;BME280;31720;52.638;9.216;2023-02-15T03:23:28;102571.91;;;0.83;100.00
32033;BME280;31720;52.638;9.216;2023-02-15T03:26:32;102566.75;;;0.86;100.00
32033;BME280;31720;52.638;9.216;2023-02-15T03:29:37;102562.47;;;0.86;100.00
32033;BME280;31720;52.638;9.216;2023-02-15T03:32:39;102562.50;;;0.88;100.00
32033;BME280;31720;52.638;9.216;2023-02-15T03:35:47;102557.34;;;0.89;100.00
32033;BME280;31720;52.638;9.216;2023-02-15T03:38:53;102558.22;;;0.90;100.00
32033;BME280;31720;52.638;9.216;2023-02-15T03:42:07;102548.72;;;0.89;100.00
32033;BME280;31720;52.638;9.216;2023-02-15T03:45:14;102540.88;;;0.86;100.00
32033;BME280;31720;52.638;9.216;2023-02-15T03:48:19;102538.34;;;0.89;100.00
32033;BME280;31720;52.638;9.216;2023-02-15T03:51:26;102547.84;;;0.88;100.00
32033;BME280;31720;52.638;9.216;2023-02-15T03:54:35;102536.56;;;0.86;100.00
32033;BME280;31720;52.638;9.216;2023-02-15T03:57:43;102526.22;;;0.85;100.00
32033;BME280;31720;52.638;9.216;2023-02-15T04:01:05;102535.63;;;0.80;100.00
32033;BME280;31720;52.638;9.216;2023-02-15T04:04:34;102539.94;;;0.79;100.00
32033;BME280;31720;52.638;9.216;2023-02-15T04:07:37;102546.78;;;0.77;100.00
32033;BME280;31720;52.638;9.216;2023-02-15T04:10:39;102544.19;;;0.77;100.00
32033;BME280;31720;52.638;9.216;2023-02-15T04:13:56;102543.31;;;0.75;100.00
32033;BME280;31720;52.638;9.216;2023-02-15T04:16:57;102532.00;;;0.68;100.00
32033;BME280;31720;52.638;9.216;2023-02-15T04:19:57;102533.78;;;0.72;100.00
32033;BME280;31720;52.638;9.216;2023-02-15T04:23:18;102539.00;;;0.75;100.00
32033;BME280;31720;52.638;9.216;2023-02-15T04:26:37;102538.88;;;0.68;100.00
32033;BME280;31720;52.638;9.216;2023-02-15T04:29:38;102541.53;;;0.72;100.00
32033;BME280;31720;52.638;9.216;2023-02-15T04:32:40;102544.09;;;0.71;100.00
32033;BME280;31720;52.638;9.216;2023-02-15T04:35:43;102535.31;;;0.61;100.00
32033;BME280;31720;52.638;9.216;2023-02-15T04:38:46;102542.25;;;0.62;100.00
32033;BME280;31720;52.638;9.216;2023-02-15T04:41:47;102529.34;;;0.64;100.00
32033;BME280;31720;52.638;9.216;2023-02-15T04:44:49;102530.97;;;0.59;100.00
32033;BME280;31720;52.638;9.216;2023-02-15T04:47:50;102529.16;;;0.53;100.00
32033;BME280;31720;52.638;9.216;2023-02-15T04:50:51;102522.34;;;0.58;100.00
32033;BME280;31720;52.638;9.216;2023-02-15T04:53:54;102513.53;;;0.47;100.00
32033;BME280;31720;52.638;9.216;2023-02-15T04:56:56;102510.97;;;0.48;100.00
32033;BME280;31720;52.638;9.216;2023-02-15T04:59:58;102512.78;;;0.54;100.00
32033;BME280;31720;52.638;9.216;2023-02-15T05:03:00;102505.03;;;0.54;100.00
32033;BME280;31720;52.638;9.216;2023-02-15T05:06:01;102504.13;;;0.52;100.00
32033;BME280;31720;52.638;9.216;2023-02-15T05:09:04;102505.94;;;0.56;100.00
32033;BME280;31720;52.638;9.216;2023-02-15T05:12:06;102501.56;;;0.54;100.00
32033;BME280;31720;52.638;9.216;2023-02-15T05:15:08;102490.25;;;0.47;100.00
32033;BME280;31720;52.638;9.216;2023-02-15T05:18:09;102493.72;;;0.49;100.00
32033;BME280;31720;52.638;9.216;2023-02-15T05:21:11;102495.44;;;0.47;100.00
32033;BME280;31720;52.638;9.216;2023-02-15T05:24:15;102501.41;;;0.44;100.00
32033;BME280;31720;52.638;9.216;2023-02-15T05:27:33;102503.13;;;0.44;100.00
32033;BME280;31720;52.638;9.216;2023-02-15T05:31:02;102511.75;;;0.43;100.00
32033;BME280;31720;52.638;9.216;2023-02-15T05:34:04;102500.22;;;0.24;100.00
32033;BME280;31720;52.638;9.216;2023-02-15T05:37:05;102502.03;;;0.30;100.00
32033;BME280;31720;52.638;9.216;2023-02-15T05:40:09;102502.13;;;0.34;100.00
32033;BME280;31720;52.638;9.216;2023-02-15T05:43:11;102496.09;;;0.35;100.00
32033;BME280;31720;52.638;9.216;2023-02-15T05:46:13;102496.88;;;0.30;100.00
32033;BME280;31720;52.638;9.216;2023-02-15T05:49:14;102486.47;;;0.27;100.00
32033;BME280;31720;52.638;9.216;2023-02-15T05:52:15;102478.69;;;0.25;100.00
32033;BME280;31720;52.638;9.216;2023-02-15T05:55:18;102469.22;;;0.27;100.00
32033;BME280;31720;52.638;9.216;2023-02-15T05:58:20;102469.16;;;0.22;100.00
32033;BME280;31720;52.638;9.216;2023-02-15T06:01:21;102474.28;;;0.19;100.00
32033;BME280;31720;52.638;9.216;2023-02-15T06:04:23;102472.59;;;0.21;100.00
32033;BME280;31720;52.638;9.216;2023-02-15T06:07:24;102475.16;;;0.21;100.00
32033;BME280;31720;52.638;9.216;2023-02-15T06:10:27;102475.16;;;0.18;100.00
32033;BME280;31720;52.638;9.216;2023-02-15T06:13:28;102470.00;;;0.20;100.00
32033;BME280;31720;52.638;9.216;2023-02-15T06:16:30;102477.66;;;0.14;100.00
32033;BME280;31720;52.638;9.216;2023-02-15T06:19:31;102471.53;;;0.10;100.00
32033;BME280;31720;52.638;9.216;2023-02-15T06:22:33;102469.81;;;0.11;100.00
32033;BME280;31720;52.638;9.216;2023-02-15T06:25:35;102464.72;;;0.14;100.00
32033;BME280;31720;52.638;9.216;2023-02-15T06:28:37;102468.97;;;0.10;100.00
32033;BME280;31720;52.638;9.216;2023-02-15T06:31:38;102480.22;;;0.14;100.00
32033;BME280;31720;52.638;9.216;2023-02-15T06:34:39;102472.41;;;0.09;100.00
32033;BME280;31720;52.638;9.216;2023-02-15T06:37:41;102471.56;;;0.13;100.00
32033;BME280;31720;52.638;9.216;2023-02-15T06:40:43;102471.63;;;0.15;100.00
32033;BME280;31720;52.638;9.216;2023-02-15T06:43:45;102476.72;;;0.12;100.00
32033;BME280;31720;52.638;9.216;2023-02-15T06:46:46;102475.88;;;0.13;100.00
32033;BME280;31720;52.638;9.216;2023-02-15T06:49:47;102484.50;;;0.12;100.00
32033;BME280;31720;52.638;9.216;2023-02-15T06:52:49;102480.22;;;0.14;100.00
32033;BME280;31720;52.638;9.216;2023-02-15T06:55:52;102488.00;;;0.15;100.00
32033;BME280;31720;52.638;9.216;2023-02-15T06:58:53;102486.34;;;0.19;100.00
32033;BME280;31720;52.638;9.216;2023-02-15T07:01:54;102487.22;;;0.21;100.00
32033;BME280;31720;52.638;9.216;2023-02-15T07:04:56;102494.19;;;0.23;100.00
32033;BME280;31720;52.638;9.216;2023-02-15T07:07:58;102494.13;;;0.22;100.00
32033;BME280;31720;52.638;9.216;2023-02-15T07:11:01;102491.59;;;0.23;100.00
32033;BME280;31720;52.638;9.216;2023-02-15T07:14:16;102494.03;;;0.14;100.00
32033;BME280;31720;52.638;9.216;2023-02-15T07:17:18;102495.75;;;0.14;100.00
32033;BME280;31720;52.638;9.216;2023-02-15T07:20:21;102490.59;;;0.17;100.00
32033;BME280;31720;52.638;9.216;2023-02-15T07:23:22;102494.97;;;0.19;100.00
32033;BME280;31720;52.638;9.216;2023-02-15T07:26:26;102491.56;;;0.22;100.00
32033;BME280;31720;52.638;9.216;2023-02-15T07:29:28;102489.03;;;0.25;100.00
32033;BME280;31720;52.638;9.216;2023-02-15T07:32:30;102481.34;;;0.30;100.00
32033;BME280;31720;52.638;9.216;2023-02-15T07:35:32;102478.81;;;0.33;100.00
32033;BME280;31720;52.638;9.216;2023-02-15T07:38:35;102471.97;;;0.36;100.00
32033;BME280;31720;52.638;9.216;2023-02-15T07:41:38;102465.13;;;0.40;100.00
32033;BME280;31720;52.638;9.216;2023-02-15T07:44:39;102452.25;;;0.41;100.00
32033;BME280;31720;52.638;9.216;2023-02-15T07:47:40;102453.13;;;0.43;100.00
32033;BME280;31720;52.638;9.216;2023-02-15T07:50:42;102454.94;;;0.49;100.00
32033;BME280;31720;52.638;9.216;2023-02-15T07:53:43;102448.91;;;0.48;100.00
32033;BME280;31720;52.638;9.216;2023-02-15T07:56:46;102457.59;;;0.54;100.00
32033;BME280;31720;52.638;9.216;2023-02-15T07:59:47;102448.13;;;0.54;100.00
32033;BME280;31720;52.638;9.216;2023-02-15T08:02:50;102441.31;;;0.59;100.00
32033;BME280;31720;52.638;9.216;2023-02-15T08:06:11;102436.25;;;0.67;100.00
32033;BME280;31720;52.638;9.216;2023-02-15T08:09:13;102432.88;;;0.72;100.00
32033;BME280;31720;52.638;9.216;2023-02-15T08:12:16;102424.25;;;0.72;100.00
32033;BME280;31720;52.638;9.216;2023-02-15T08:15:17;102432.06;;;0.76;100.00
32033;BME280;31720;52.638;9.216;2023-02-15T08:18:18;102433.91;;;0.84;100.00
32033;BME280;31720;52.638;9.216;2023-02-15T08:21:20;102427.06;;;0.89;100.00
32033;BME280;31720;52.638;9.216;2023-02-15T08:24:23;102430.59;;;0.94;100.00
32033;BME280;31720;52.638;9.216;2023-02-15T08:27:26;102431.56;;;1.00;100.00
32033;BME280;31720;52.638;9.216;2023-02-15T08:30:28;102432.50;;;1.09;100.00
32033;BME280;31720;52.638;9.216;2023-02-15T08:33:29;102432.56;;;1.12;100.00
32033;BME280;31720;52.638;9.216;2023-02-15T08:36:31;102421.44;;;1.20;100.00
32033;BME280;31720;52.638;9.216;2023-02-15T08:39:32;102422.31;;;1.22;100.00
32033;BME280;31720;52.638;9.216;2023-02-15T08:42:35;102424.06;;;1.23;100.00
32033;BME280;31720;52.638;9.216;2023-02-15T08:45:36;102425.91;;;1.32;100.00
32033;BME280;31720;52.638;9.216;2023-02-15T08:48:38;102422.53;;;1.41;100.00
32033;BME280;31720;52.638;9.216;2023-02-15T08:51:40;102416.53;;;1.45;100.00
32033;BME280;31720;52.638;9.216;2023-02-15T08:54:41;102408.00;;;1.50;100.00
32033;BME280;31720;52.638;9.216;2023-02-15T08:57:43;102413.22;;;1.55;100.00
32033;BME280;31720;52.638;9.216;2023-02-15T09:00:45;102402.09;;;1.65;100.00
32033;BME280;31720;52.638;9.216;2023-02-15T09:03:49;102409.91;;;1.71;100.00
32033;BME280;31720;52.638;9.216;2023-02-15T09:06:52;102407.41;;;1.79;100.00
32033;BME280;31720;52.638;9.216;2023-02-15T09:09:55;102405.75;;;1.87;100.00
32033;BME280;31720;52.638;9.216;2023-02-15T09:12:57;102404.13;;;1.97;100.00
32033;BME280;31720;52.638;9.216;2023-02-15T09:15:59;102403.38;;;2.12;100.00
32033;BME280;31720;52.638;9.216;2023-02-15T09:19:01;102394.81;;;2.22;100.00
32033;BME280;31720;52.638;9.216;2023-02-15T09:22:04;102397.47;;;2.28;100.00
32033;BME280;31720;52.638;9.216;2023-02-15T09:25:06;102381.91;;;2.29;100.00
32033;BME280;31720;52.638;9.216;2023-02-15T09:28:09;102400.13;;;2.37;100.00
32033;BME280;31720;52.638;9.216;2023-02-15T09:31:13;102400.22;;;2.51;100.00
32033;BME280;31720;52.638;9.216;2023-02-15T09:34:17;102402.00;;;2.60;100.00
32033;BME280;31720;52.638;9.216;2023-02-15T09:37:18;102400.31;;;2.72;100.00
32033;BME280;31720;52.638;9.216;2023-02-15T09:40:20;102402.97;;;2.82;100.00
32033;BME280;31720;52.638;9.216;2023-02-15T09:43:33;102406.53;;;2.99;100.00
32033;BME280;31720;52.638;9.216;2023-02-15T09:46:59;102400.50;;;3.08;100.00
32033;BME280;31720;52.638;9.216;2023-02-15T09:50:10;102405.72;;;3.11;100.00
32033;BME280;31720;52.638;9.216;2023-02-15T09:53:37;102399.69;;;3.15;100.00
32033;BME280;31720;52.638;9.216;2023-02-15T09:56:48;102391.91;;;3.21;100.00
32033;BME280;31720;52.638;9.216;2023-02-15T09:59:59;102390.19;;;3.26;100.00
32033;BME280;31720;52.638;9.216;2023-02-15T10:03:18;102399.72;;;3.31;100.00
32033;BME280;31720;52.638;9.216;2023-02-15T10:06:31;102399.75;;;3.38;100.00
32033;BME280;31720;52.638;9.216;2023-02-15T10:09:46;102385.06;;;3.46;100.00
32033;BME280;31720;52.638;9.216;2023-02-15T10:13:08;102385.06;;;3.53;100.00
32033;BME280;31720;52.638;9.216;2023-02-15T10:16:24;102385.94;;;3.62;100.00
32033;BME280;31720;52.638;9.216;2023-02-15T10:19:33;102386.84;;;3.70;100.00
32033;BME280;31720;52.638;9.216;2023-02-15T10:22:52;102388.59;;;3.81;100.00
32033;BME280;31720;52.638;9.216;2023-02-15T10:26:03;102393.81;;;3.97;100.00
32033;BME280;31720;52.638;9.216;2023-02-15T10:29:09;102401.63;;;4.09;100.00
32033;BME280;31720;52.638;9.216;2023-02-15T10:32:22;102394.66;;;4.20;100.00
32033;BME280;31720;52.638;9.216;2023-02-15T10:35:31;102398.13;;;4.33;100.00
32033;BME280;31720;52.638;9.216;2023-02-15T10:38:40;102391.19;;;4.46;100.00
32033;BME280;31720;52.638;9.216;2023-02-15T10:41:47;102392.03;;;4.52;100.00
32033;BME280;31720;52.638;9.216;2023-02-15T10:45:03;102394.59;;;4.68;100.00
32033;BME280;31720;52.638;9.216;2023-02-15T10:48:22;102379.81;;;4.76;100.00
32033;BME280;31720;52.638;9.216;2023-02-15T10:51:36;102379.81;;;4.82;100.00
32033;BME280;31720;52.638;9.216;2023-02-15T10:54:44;102381.53;;;4.91;100.00
32033;BME280;31720;52.638;9.216;2023-02-15T10:57:52;102371.94;;;5.00;100.00
32033;BME280;31720;52.638;9.216;2023-02-15T11:01:04;102368.44;;;5.09;100.00
32033;BME280;31720;52.638;9.216;2023-02-15T11:04:30;102358.78;;;5.22;100.00
32033;BME280;31720;52.638;9.216;2023-02-15T11:07:35;102359.66;;;5.24;100.00
32033;BME280;31720;52.638;9.216;2023-02-15T11:10:42;102357.00;;;5.33;100.00
32033;BME280;31720;52.638;9.216;2023-02-15T11:13:48;102361.28;;;5.43;100.00
32033;BME280;31720;52.638;9.216;2023-02-15T11:16:54;102359.50;;;5.48;100.00
32033;BME280;31720;52.638;9.216;2023-02-15T11:20:07;102355.94;;;5.62;100.00
32033;BME280;31720;52.638;9.216;2023-02-15T11:23:12;102358.41;;;5.83;100.00
32033;BME280;31720;52.638;9.216;2023-02-15T11:26:20;102361.75;;;6.02;100.00
32033;BME280;31720;52.638;9.216;2023-02-15T11:29:27;102353.84;;;6.14;100.00
32033;BME280;31720;52.638;9.216;2023-02-15T11:32:31;102340.63;;;6.26;100.00
32033;BME280;31720;52.638;9.216;2023-02-15T11:35:40;102347.50;;;6.38;100.00
32033;BME280;31720;52.638;9.216;2023-02-15T11:38:44;102339.53;;;6.50;100.00
32033;BME280;31720;52.638;9.216;2023-02-15T11:41:49;102337.63;;;6.65;100.00
32033;BME280;31720;52.638;9.216;2023-02-15T11:44:59;102332.22;;;6.80;100.00
32033;BME280;31720;52.638;9.216;2023-02-15T11:48:09;102316.31;;;7.00;100.00
32033;BME280;31720;52.638;9.216;2023-02-15T11:51:14;102320.50;;;7.13;100.00
32033;BME280;31720;52.638;9.216;2023-02-15T11:54:19;102317.81;;;7.16;100.00
32033;BME280;31720;52.638;9.216;2023-02-15T11:57:26;102309.81;;;7.28;100.00
32033;BME280;31720;52.638;9.216;2023-02-15T12:00:32;102319.19;;;7.42;100.00
32033;BME280;31720;52.638;9.216;2023-02-15T12:03:43;102326.84;;;7.55;100.00
32033;BME280;31720;52.638;9.216;2023-02-15T12:06:51;102309.97;;;7.73;100.00
32033;BME280;31720;52.638;9.216;2023-02-15T12:10:00;102301.00;;;7.88;100.00
32033;BME280;31720;52.638;9.216;2023-02-15T12:13:11;102300.72;;;8.03;100.00
32033;BME280;31720;52.638;9.216;2023-02-15T12:16:13;102304.91;;;8.15;100.00
32033;BME280;31720;52.638;9.216;2023-02-15T12:19:28;102305.47;;;8.31;100.00
32033;BME280;31720;52.638;9.216;2023-02-15T12:22:34;102298.41;;;8.37;100.00
32033;BME280;31720;52.638;9.216;2023-02-15T12:25:40;102294.81;;;8.42;100.00
32033;BME280;31720;52.638;9.216;2023-02-15T12:28:44;102297.22;;;8.52;100.00
32033;BME280;31720;52.638;9.216;2023-02-15T12:31:51;102302.28;;;8.63;100.00
32033;BME280;31720;52.638;9.216;2023-02-15T12:34:56;102289.69;;;8.79;100.00
32033;BME280;31720;52.638;9.216;2023-02-15T12:38:05;102285.88;;;8.94;100.00
32033;BME280;31720;52.638;9.216;2023-02-15T12:41:22;102281.38;;;9.00;98.98
32033;BME280;31720;52.638;9.216;2023-02-15T12:44:25;102276.63;;;9.16;94.87
32033;BME280;31720;52.638;9.216;2023-02-15T12:47:29;102270.81;;;9.03;96.18
32033;BME280;31720;52.638;9.216;2023-02-15T12:50:31;102262.81;;;9.08;99.71
32033;BME280;31720;52.638;9.216;2023-02-15T12:53:35;102267.19;;;9.09;98.83
32033;BME280;31720;52.638;9.216;2023-02-15T12:56:37;102259.13;;;9.17;97.89
32033;BME280;31720;52.638;9.216;2023-02-15T12:59:48;102265.91;;;9.27;95.74
32033;BME280;31720;52.638;9.216;2023-02-15T13:02:51;102260.50;;;9.33;97.95
32033;BME280;31720;52.638;9.216;2023-02-15T13:05:55;102247.44;;;9.31;97.66
32033;BME280;31720;52.638;9.216;2023-02-15T13:09:06;102240.44;;;9.32;98.43
32033;BME280;31720;52.638;9.216;2023-02-15T13:12:18;102241.50;;;9.23;95.82
32033;BME280;31720;52.638;9.216;2023-02-15T13:15:28;102230.97;;;9.25;98.53
32033;BME280;31720;52.638;9.216;2023-02-15T13:18:33;102226.25;;;9.39;98.24
32033;BME280;31720;52.638;9.216;2023-02-15T13:21:38;102225.22;;;9.45;96.96
32033;BME280;31720;52.638;9.216;2023-02-15T13:24:45;102237.69;;;9.71;93.98
32033;BME280;31720;52.638;9.216;2023-02-15T13:27:51;102225.66;;;9.96;92.70
32033;BME280;31720;52.638;9.216;2023-02-15T13:30:53;102222.84;;;10.04;89.25
32033;BME280;31720;52.638;9.216;2023-02-15T13:34:00;102213.75;;;9.83;89.21
32033;BME280;31720;52.638;9.216;2023-02-15T13:37:06;102207.91;;;9.73;89.70
32033;BME280;31720;52.638;9.216;2023-02-15T13:40:15;102204.19;;;9.80;90.72
32033;BME280;31720;52.638;9.216;2023-02-15T13:43:30;102199.00;;;9.79;92.01
32033;BME280;31720;52.638;9.216;2023-02-15T13:46:45;102194.72;;;9.75;92.61
32033;BME280;31720;52.638;9.216;2023-02-15T13:50:05;102198.91;;;9.82;92.23
32033;BME280;31720;52.638;9.216;2023-02-15T13:53:28;102194.66;;;9.78;93.25
32033;BME280;31720;52.638;9.216;2023-02-15T13:56:47;102201.66;;;9.77;91.76
32033;BME280;31720;52.638;9.216;2023-02-15T13:59:59;102193.66;;;9.82;91.98
32033;BME280;31720;52.638;9.216;2023-02-15T14:03:24;102185.59;;;9.88;91.37
32033;BME280;31720;52.638;9.216;2023-02-15T14:06:47;102187.63;;;9.78;92.49
32033;BME280;31720;52.638;9.216;2023-02-15T14:10:02;102188.66;;;9.73;92.34
32033;BME280;31720;52.638;9.216;2023-02-15T14:13:32;102191.53;;;9.63;95.36
32033;BME280;31720;52.638;9.216;2023-02-15T14:16:41;102181.22;;;9.56;94.46
32033;BME280;31720;52.638;9.216;2023-02-15T14:19:46;102184.63;;;9.59;95.31
32033;BME280;31720;52.638;9.216;2023-02-15T14:22:54;102179.22;;;9.65;98.01
32033;BME280;31720;52.638;9.216;2023-02-15T14:26:04;102179.16;;;9.69;98.20
32033;BME280;31720;52.638;9.216;2023-02-15T14:29:16;102187.22;;;9.61;97.14
32033;BME280;31720;52.638;9.216;2023-02-15T14:32:27;102183.00;;;9.55;98.17
32033;BME280;31720;52.638;9.216;2023-02-15T14:35:33;102176.88;;;9.55;96.24
32033;BME280;31720;52.638;9.216;2023-02-15T14:38:51;102182.00;;;9.59;96.78
32033;BME280;31720;52.638;9.216;2023-02-15T14:41:58;102184.91;;;9.49;95.69
32033;BME280;31720;52.638;9.216;2023-02-15T14:45:04;102186.09;;;9.37;97.56
32033;BME280;31720;52.638;9.216;2023-02-15T14:48:12;102184.47;;;9.31;98.36
32033;BME280;31720;52.638;9.216;2023-02-15T14:54:59;102180.13;;;9.30;100.00
32033;BME280;31720;52.638;9.216;2023-02-15T14:58:01;102181.13;;;9.25;100.00
32033;BME280;31720;52.638;9.216;2023-02-15T15:01:06;102176.13;;;9.15;100.00
32033;BME280;31720;52.638;9.216;2023-02-15T15:04:12;102172.63;;;9.15;100.00
32033;BME280;31720;52.638;9.216;2023-02-15T15:07:19;102171.63;;;9.21;100.00
32033;BME280;31720;52.638;9.216;2023-02-15T15:10:37;102164.81;;;9.13;100.00
32033;BME280;31720;52.638;9.216;2023-02-15T15:13:53;102166.59;;;9.11;100.00
32033;BME280;31720;52.638;9.216;2023-02-15T15:16:57;102160.44;;;9.12;100.00
32033;BME280;31720;52.638;9.216;2023-02-15T15:20:00;102152.66;;;9.09;100.00
32033;BME280;31720;52.638;9.216;2023-02-15T15:23:41;102154.50;;;9.06;100.00
32033;BME280;31720;52.638;9.216;2023-02-15T15:26:43;102154.56;;;9.03;100.00
32033;BME280;31720;52.638;9.216;2023-02-15T15:29:47;102152.81;;;9.03;100.00
32033;BME280;31720;52.638;9.216;2023-02-15T15:32:56;102146.75;;;9.01;100.00
32033;BME280;31720;52.638;9.216;2023-02-15T15:36:29;102152.97;;;8.97;100.00
32033;BME280;31720;52.638;9.216;2023-02-15T15:39:56;102154.78;;;8.95;100.00
32033;BME280;31720;52.638;9.216;2023-02-15T15:46:51;102149.00;;;8.79;100.00
32033;BME280;31720;52.638;9.216;2023-02-15T15:50:00;102146.59;;;8.70;100.00
32033;BME280;31720;52.638;9.216;2023-02-15T15:53:02;102147.75;;;8.58;100.00
32033;BME280;31720;52.638;9.216;2023-02-15T15:56:07;102143.59;;;8.48;100.00
32033;BME280;31720;52.638;9.216;2023-02-15T15:59:18;102135.00;;;8.43;100.00
32033;BME280;31720;52.638;9.216;2023-02-15T16:02:20;102128.25;;;8.30;100.00
32033;BME280;31720;52.638;9.216;2023-02-15T16:05:24;102119.66;;;8.25;100.00
32033;BME280;31720;52.638;9.216;2023-02-15T16:08:30;102128.53;;;8.18;100.00
32033;BME280;31720;52.638;9.216;2023-02-15T16:11:32;102120.09;;;8.03;100.00
32033;BME280;31720;52.638;9.216;2023-02-15T16:14:36;102122.97;;;7.89;100.00
32033;BME280;31720;52.638;9.216;2023-02-15T16:17:40;102127.53;;;7.80;100.00
32033;BME280;31720;52.638;9.216;2023-02-15T16:20:49;102122.50;;;7.71;100.00
32033;BME280;31720;52.638;9.216;2023-02-15T16:24:03;102110.44;;;7.62;100.00